createdAt,value
2023-03-19T00:02:17.136Z,8.20
2023-03-19T00:04:47.208Z,8.20
2023-03-19T00:07:16.896Z,8.20
2023-03-19T00:09:48.088Z,8.20
2023-03-19T00:12:16.080Z,8.20
2023-03-19T00:14:44.100Z,8.20
2023-03-19T00:17:12.099Z,8.20
2023-03-19T00:19:40.033Z,8.10
2023-03-19T00:22:09.610Z,8.10
2023-03-19T00:24:37.527Z,8.10
2023-03-19T00:27:05.473Z,8.10
2023-03-19T00:29:33.318Z,8.10
2023-03-19T00:32:01.138Z,8.10
2023-03-19T00:34:28.871Z,8.10
2023-03-19T00:36:57.267Z,8.10
2023-03-19T00:39:26.465Z,8.10
2023-03-19T00:41:54.323Z,8.10
2023-03-19T00:44:22.110Z,8.20
2023-03-19T00:46:49.860Z,8.10
2023-03-19T00:49:17.638Z,8.20
2023-03-19T00:51:45.813Z,8.20
2023-03-19T00:54:13.875Z,8.20
2023-03-19T00:56:42.978Z,8.20
2023-03-19T00:59:10.705Z,8.20
2023-03-19T01:01:39.136Z,8.20
2023-03-19T01:04:07.031Z,8.20
2023-03-19T01:06:34.827Z,8.20
2023-03-19T01:09:02.606Z,8.30
2023-03-19T01:11:30.461Z,8.30
2023-03-19T01:13:59.494Z,8.30
2023-03-19T01:16:27.273Z,8.20
2023-03-19T01:18:55.337Z,8.20
2023-03-19T01:21:23.114Z,8.20
2023-03-19T01:23:51.723Z,8.20
2023-03-19T01:26:19.994Z,8.20
2023-03-19T01:28:47.786Z,8.20
2023-03-19T01:31:17.212Z,8.20
2023-03-19T01:33:44.997Z,8.20
2023-03-19T01:36:13.024Z,8.20
2023-03-19T01:38:40.782Z,8.20
2023-03-19T01:41:08.693Z,8.10
2023-03-19T01:43:36.445Z,8.10
2023-03-19T01:46:08.728Z,8.10
2023-03-19T01:48:42.517Z,8.00
2023-03-19T01:51:12.142Z,8.00
2023-03-19T01:53:42.610Z,8.00
2023-03-19T01:56:15.351Z,8.00
2023-03-19T01:58:46.876Z,8.00
2023-03-19T02:01:15.285Z,8.10
2023-03-19T02:03:44.732Z,8.00
2023-03-19T02:06:13.460Z,8.00
2023-03-19T02:08:42.590Z,8.00
2023-03-19T02:11:11.067Z,8.00
2023-03-19T02:13:39.167Z,8.00
2023-03-19T02:16:07.816Z,8.00
2023-03-19T02:18:37.229Z,8.00
2023-03-19T02:21:08.720Z,8.00
2023-03-19T02:23:41.903Z,7.90
2023-03-19T02:26:13.441Z,7.90
2023-03-19T02:28:43.861Z,7.90
2023-03-19T02:31:13.026Z,7.90
2023-03-19T02:33:41.258Z,7.80
2023-03-19T02:36:13.549Z,7.80
2023-03-19T02:38:43.617Z,7.80
2023-03-19T02:41:12.735Z,7.70
2023-03-19T02:43:41.903Z,7.70
2023-03-19T02:46:13.752Z,7.70
2023-03-19T02:48:42.146Z,7.60
2023-03-19T02:51:10.125Z,7.60
2023-03-19T02:53:37.847Z,7.60
2023-03-19T02:56:05.938Z,7.60
2023-03-19T02:58:35.181Z,7.60
2023-03-19T03:01:03.014Z,7.50
2023-03-19T03:03:32.433Z,7.50
2023-03-19T03:06:00.357Z,7.50
2023-03-19T03:08:28.414Z,7.50
2023-03-19T03:10:56.120Z,7.50
2023-03-19T03:13:23.836Z,7.50
2023-03-19T03:15:53.424Z,7.50
2023-03-19T03:18:21.141Z,7.50
2023-03-19T03:20:49.025Z,7.50
2023-03-19T03:23:17.141Z,7.50
2023-03-19T03:25:44.918Z,7.50
2023-03-19T03:28:13.100Z,7.50
2023-03-19T03:30:40.788Z,7.50
2023-03-19T03:33:09.926Z,7.50
2023-03-19T03:35:37.920Z,7.50
2023-03-19T03:38:06.578Z,7.50
2023-03-19T03:40:34.853Z,7.50
2023-03-19T03:43:02.759Z,7.50
2023-03-19T03:45:30.800Z,7.50
2023-03-19T03:47:58.526Z,7.50
2023-03-19T03:50:27.573Z,7.50
2023-03-19T03:52:55.472Z,7.50
2023-03-19T03:55:23.210Z,7.50
2023-03-19T03:57:50.987Z,7.50
2023-03-19T04:00:19.206Z,7.50
2023-03-19T04:02:46.998Z,7.40
2023-03-19T04:05:14.825Z,7.40
2023-03-19T04:11:34.041Z,7.40
2023-03-19T04:14:03.211Z,7.40
2023-03-19T04:16:31.105Z,7.50
2023-03-19T04:18:58.841Z,7.50
2023-03-19T04:21:28.036Z,7.50
2023-03-19T04:23:55.742Z,7.40
2023-03-19T04:26:23.448Z,7.40
2023-03-19T04:28:52.520Z,7.40
2023-03-19T04:31:20.245Z,7.40
2023-03-19T04:33:48.509Z,7.40
2023-03-19T04:36:17.861Z,7.40
2023-03-19T04:38:46.051Z,7.40
2023-03-19T04:41:13.944Z,7.40
2023-03-19T04:43:41.738Z,7.40
2023-03-19T04:46:10.858Z,7.40
2023-03-19T04:48:39.778Z,7.40
2023-03-19T04:51:09.502Z,7.40
2023-03-19T04:53:37.841Z,7.40
2023-03-19T04:56:06.862Z,7.40
2023-03-19T04:58:34.625Z,7.40
2023-03-19T05:01:03.697Z,7.40
2023-03-19T05:03:32.798Z,7.40
2023-03-19T05:06:00.572Z,7.40
2023-03-19T05:08:28.434Z,7.40
2023-03-19T05:10:56.149Z,7.40
2023-03-19T05:13:23.896Z,7.40
2023-03-19T05:15:54.930Z,7.50
2023-03-19T05:18:23.360Z,7.50
2023-03-19T05:20:53.218Z,7.50
2023-03-19T05:23:20.976Z,7.50
2023-03-19T05:25:49.109Z,7.50
2023-03-19T05:28:16.994Z,7.50
2023-03-19T05:30:44.910Z,7.50
2023-03-19T05:33:12.884Z,7.50
2023-03-19T05:35:41.057Z,7.50
2023-03-19T05:38:11.085Z,7.50
2023-03-19T05:40:41.800Z,7.50
2023-03-19T05:43:10.390Z,7.50
2023-03-19T05:45:38.734Z,7.50
2023-03-19T05:48:06.719Z,7.50
2023-03-19T05:50:34.895Z,7.50
2023-03-19T05:53:03.313Z,7.60
2023-03-19T05:55:32.365Z,7.60
2023-03-19T05:58:00.099Z,7.60
2023-03-19T06:00:27.982Z,7.60
2023-03-19T06:02:55.818Z,7.70
2023-03-19T06:05:23.590Z,7.70
2023-03-19T06:07:51.289Z,7.80
2023-03-19T06:10:19.194Z,7.80
2023-03-19T06:12:48.242Z,7.80
2023-03-19T06:15:16.888Z,7.90
2023-03-19T06:17:45.128Z,7.90
2023-03-19T06:20:14.023Z,8.00
2023-03-19T06:22:42.364Z,8.00
2023-03-19T06:25:10.584Z,8.00
2023-03-19T06:27:38.305Z,8.10
2023-03-19T06:30:09.046Z,8.10
2023-03-19T06:32:37.081Z,8.10
2023-03-19T06:35:06.346Z,8.20
2023-03-19T06:37:34.319Z,8.20
2023-03-19T06:40:02.001Z,8.30
2023-03-19T06:42:29.783Z,8.30
2023-03-19T06:44:57.701Z,8.30
2023-03-19T06:47:26.970Z,8.30
2023-03-19T06:49:54.812Z,8.40
2023-03-19T06:52:22.498Z,8.40
2023-03-19T06:54:50.520Z,8.40
2023-03-19T06:57:18.217Z,8.40
2023-03-19T06:59:46.248Z,8.50
2023-03-19T07:02:14.331Z,8.40
2023-03-19T07:04:43.389Z,8.50
2023-03-19T07:07:11.316Z,8.50
2023-03-19T07:09:39.017Z,8.60
2023-03-19T07:12:07.292Z,8.60
2023-03-19T07:14:35.374Z,8.60
2023-03-19T07:17:03.079Z,8.60
2023-03-19T07:19:30.879Z,8.70
2023-03-19T07:21:59.895Z,8.70
2023-03-19T07:24:27.644Z,8.70
2023-03-19T07:26:55.501Z,8.70
2023-03-19T07:29:23.298Z,8.70
2023-03-19T07:31:51.035Z,8.80
2023-03-19T07:34:18.764Z,8.80
2023-03-19T07:36:47.087Z,8.80
2023-03-19T07:39:16.359Z,8.90
2023-03-19T07:41:47.537Z,8.90
2023-03-19T07:44:16.040Z,8.90
2023-03-19T07:46:43.759Z,9.00
2023-03-19T07:49:11.819Z,9.00
2023-03-19T07:51:39.536Z,9.00
2023-03-19T07:54:07.680Z,9.10
2023-03-19T07:56:37.097Z,9.10
2023-03-19T07:59:04.791Z,9.20
2023-03-19T08:01:32.560Z,9.20
2023-03-19T08:04:00.633Z,9.20
2023-03-19T08:06:28.398Z,9.20
2023-03-19T08:08:56.246Z,9.30
2023-03-19T08:11:23.990Z,9.30
2023-03-19T08:13:53.067Z,9.30
2023-03-19T08:16:21.409Z,9.30
2023-03-19T08:18:51.271Z,9.30
2023-03-19T08:21:19.765Z,9.40
2023-03-19T08:23:47.490Z,9.40
2023-03-19T08:26:16.186Z,9.40
2023-03-19T08:28:43.969Z,9.50
2023-03-19T08:31:14.986Z,9.60
2023-03-19T08:33:43.087Z,9.70
2023-03-19T08:36:12.514Z,9.80
2023-03-19T08:38:40.688Z,9.90
2023-03-19T08:41:09.052Z,9.90
2023-03-19T08:43:37.798Z,10.00
2023-03-19T08:46:06.225Z,10.00
2023-03-19T08:48:35.347Z,10.10
2023-03-19T08:51:04.331Z,10.10
2023-03-19T08:53:33.475Z,10.10
2023-03-19T08:56:02.835Z,10.20
2023-03-19T08:58:30.911Z,10.20
2023-03-19T09:01:02.865Z,10.20
2023-03-19T09:03:30.886Z,10.30
2023-03-19T09:06:01.480Z,10.40
2023-03-19T09:08:29.570Z,10.50
2023-03-19T09:10:57.632Z,10.60
2023-03-19T09:13:26.550Z,10.60
2023-03-19T09:15:54.772Z,10.70
2023-03-19T09:18:23.996Z,10.80
2023-03-19T09:20:51.859Z,10.80
2023-03-19T09:23:21.363Z,10.90
2023-03-19T09:25:49.741Z,10.90
2023-03-19T09:28:17.772Z,10.90
2023-03-19T09:30:47.706Z,10.90
2023-03-19T09:33:16.247Z,10.90
2023-03-19T09:35:44.264Z,11.00
2023-03-19T09:38:12.011Z,11.00
2023-03-19T09:40:45.009Z,11.00
2023-03-19T09:43:29.047Z,11.00
2023-03-19T09:45:58.088Z,11.00
2023-03-19T09:48:33.863Z,11.10
2023-03-19T09:51:06.542Z,11.10
2023-03-19T09:53:43.741Z,11.20
2023-03-19T09:56:16.321Z,11.20
2023-03-19T09:58:45.068Z,11.30
2023-03-19T10:01:25.398Z,11.30
2023-03-19T10:04:13.431Z,11.30
2023-03-19T10:06:41.362Z,11.40
2023-03-19T10:09:26.686Z,11.40
2023-03-19T10:12:07.320Z,11.40
2023-03-19T10:14:52.698Z,11.40
2023-03-19T10:17:25.407Z,11.50
2023-03-19T10:19:59.238Z,11.50
2023-03-19T10:22:31.798Z,11.50
2023-03-19T10:25:01.062Z,11.50
2023-03-19T10:27:30.375Z,11.50
2023-03-19T10:29:58.344Z,11.50
2023-03-19T10:32:36.932Z,11.50
2023-03-19T10:35:10.985Z,11.50
2023-03-19T10:37:39.292Z,11.50
2023-03-19T10:40:18.156Z,11.40
2023-03-19T10:43:04.662Z,11.40
2023-03-19T10:45:34.830Z,11.40
2023-03-19T10:48:05.271Z,11.40
2023-03-19T10:50:36.171Z,11.40
2023-03-19T10:53:08.191Z,11.40
2023-03-19T10:55:36.251Z,11.40
2023-03-19T10:58:07.864Z,11.50
2023-03-19T11:00:36.187Z,11.50
2023-03-19T11:03:05.388Z,11.60
2023-03-19T11:05:34.959Z,11.60
2023-03-19T11:08:05.133Z,11.70
2023-03-19T11:10:35.840Z,11.70
2023-03-19T11:13:07.927Z,11.70
2023-03-19T11:15:38.087Z,11.70
2023-03-19T11:18:17.178Z,11.70
2023-03-19T11:20:51.724Z,11.70
2023-03-19T11:23:21.226Z,11.80
2023-03-19T11:25:52.272Z,11.90
2023-03-19T11:28:26.256Z,11.90
2023-03-19T11:31:01.317Z,12.00
2023-03-19T11:33:52.962Z,12.10
2023-03-19T11:36:26.367Z,12.10
2023-03-19T11:39:13.395Z,12.20
2023-03-19T11:41:54.816Z,12.20
2023-03-19T11:44:29.907Z,12.20
2023-03-19T11:47:14.896Z,12.20
2023-03-19T11:50:18.401Z,12.30
2023-03-19T11:53:04.052Z,12.30
2023-03-19T11:55:37.018Z,12.40
2023-03-19T11:58:30.948Z,12.40
2023-03-19T12:01:07.409Z,12.60
2023-03-19T12:04:09.989Z,12.60
2023-03-19T12:06:47.322Z,12.70
2023-03-19T12:09:23.869Z,12.80
2023-03-19T12:11:55.863Z,12.90
2023-03-19T12:14:41.249Z,13.00
2023-03-19T12:17:23.380Z,13.00
2023-03-19T12:20:15.825Z,13.00
2023-03-19T12:22:55.687Z,13.10
2023-03-19T12:25:31.571Z,13.10
2023-03-19T12:28:07.021Z,13.10
2023-03-19T12:30:39.741Z,13.20
2023-03-19T12:33:17.594Z,13.20
2023-03-19T12:35:50.001Z,13.30
2023-03-19T12:38:24.009Z,13.30
2023-03-19T12:40:56.915Z,13.30
2023-03-19T12:43:29.506Z,13.30
2023-03-19T12:46:03.121Z,13.30
2023-03-19T12:48:41.291Z,13.40
2023-03-19T12:51:13.541Z,13.50
2023-03-19T12:53:47.262Z,13.70
2023-03-19T12:56:21.178Z,13.80
2023-03-19T12:58:58.611Z,13.90
2023-03-19T13:01:31.149Z,14.00
2023-03-19T13:04:07.170Z,14.00
2023-03-19T13:06:38.079Z,14.00
2023-03-19T13:09:12.118Z,14.20
2023-03-19T13:11:47.592Z,14.30
2023-03-19T13:14:23.025Z,14.40
2023-03-19T13:17:00.470Z,14.50
2023-03-19T13:19:35.523Z,14.60
2023-03-19T13:22:10.389Z,14.70
2023-03-19T13:24:40.621Z,14.80
2023-03-19T13:27:12.703Z,14.90
2023-03-19T13:30:01.843Z,15.00
2023-03-19T13:32:37.031Z,15.00
2023-03-19T13:35:26.012Z,14.90
2023-03-19T13:37:58.786Z,14.90
2023-03-19T13:40:42.228Z,15.00
2023-03-19T13:43:43.918Z,14.90
2023-03-19T13:46:32.302Z,15.00
2023-03-19T13:49:10.804Z,15.10
2023-03-19T13:51:39.903Z,15.00
2023-03-19T13:54:16.274Z,15.00
2023-03-19T13:57:18.755Z,14.90
2023-03-19T13:59:48.092Z,14.90
2023-03-19T14:02:50.522Z,15.10
2023-03-19T14:05:20.671Z,15.20
2023-03-19T14:07:54.750Z,15.30
2023-03-19T14:10:28.184Z,15.50
2023-03-19T14:13:06.135Z,15.50
2023-03-19T14:15:34.776Z,15.50
2023-03-19T14:18:06.004Z,15.40
2023-03-19T14:20:40.775Z,15.30
2023-03-19T14:23:36.078Z,15.20
2023-03-19T14:26:11.274Z,15.10
2023-03-19T14:28:46.507Z,15.10
2023-03-19T14:31:25.208Z,15.00
2023-03-19T14:33:59.869Z,15.00
2023-03-19T14:36:28.554Z,15.00
2023-03-19T14:39:00.974Z,14.90
2023-03-19T14:41:34.289Z,14.90
2023-03-19T14:44:25.672Z,14.90
2023-03-19T14:47:11.928Z,14.90
2023-03-19T14:50:11.852Z,14.80
2023-03-19T14:52:45.287Z,14.80
2023-03-19T14:55:16.305Z,14.70
2023-03-19T14:57:44.445Z,14.60
2023-03-19T15:00:17.239Z,14.40
2023-03-19T15:02:47.643Z,14.30
2023-03-19T15:05:21.863Z,14.20
2023-03-19T15:07:51.609Z,14.10
2023-03-19T15:10:22.851Z,13.90
2023-03-19T15:13:16.514Z,13.80
2023-03-19T15:15:59.544Z,13.60
2023-03-19T15:18:27.704Z,13.50
2023-03-19T15:20:57.099Z,13.50
2023-03-19T15:23:28.334Z,13.50
2023-03-19T15:26:01.034Z,13.40
2023-03-19T15:28:30.568Z,13.20
2023-03-19T15:31:19.300Z,13.00
2023-03-19T15:33:51.310Z,12.90
2023-03-19T15:36:22.823Z,12.80
2023-03-19T15:38:54.768Z,12.80
2023-03-19T15:41:26.433Z,12.80
2023-03-19T15:43:55.313Z,12.80
2023-03-19T15:46:27.160Z,12.80
2023-03-19T15:48:58.756Z,12.80
2023-03-19T15:51:27.861Z,12.70
2023-03-19T15:53:56.322Z,12.70
2023-03-19T15:56:25.782Z,12.60
2023-03-19T15:58:57.851Z,12.50
2023-03-19T16:01:27.791Z,12.40
2023-03-19T16:04:00.630Z,12.30
2023-03-19T16:06:31.447Z,12.20
2023-03-19T16:09:23.989Z,12.10
2023-03-19T16:11:53.862Z,12.00
2023-03-19T16:14:29.601Z,11.90
2023-03-19T16:17:02.571Z,11.80
2023-03-19T16:19:36.194Z,11.70
2023-03-19T16:22:12.462Z,11.70
2023-03-19T16:24:44.099Z,11.70
2023-03-19T16:27:17.711Z,11.70
2023-03-19T16:29:47.551Z,11.70
2023-03-19T16:32:21.374Z,11.70
2023-03-19T16:34:52.133Z,11.70
2023-03-19T16:37:41.919Z,11.70
2023-03-19T16:40:41.113Z,11.70
2023-03-19T16:43:17.141Z,11.70
2023-03-19T16:45:46.165Z,11.70
2023-03-19T16:48:13.892Z,11.70
2023-03-19T16:50:43.985Z,11.70
2023-03-19T16:53:21.299Z,11.60
2023-03-19T16:55:49.591Z,11.50
2023-03-19T16:58:20.798Z,11.50
2023-03-19T17:00:48.887Z,11.40
2023-03-19T17:03:18.610Z,11.40
2023-03-19T17:05:47.900Z,11.30
2023-03-19T17:08:16.113Z,11.30
2023-03-19T17:10:47.450Z,11.30
2023-03-19T17:13:20.354Z,11.30
2023-03-19T17:15:50.260Z,11.20
2023-03-19T17:18:22.580Z,11.20
2023-03-19T17:20:53.029Z,11.20
2023-03-19T17:23:24.108Z,11.20
2023-03-19T17:25:52.461Z,11.20
2023-03-19T17:28:21.652Z,11.20
2023-03-19T17:30:50.317Z,11.20
2023-03-19T17:33:24.215Z,11.10
2023-03-19T17:35:52.700Z,11.10
2023-03-19T17:38:21.905Z,11.10
2023-03-19T17:40:49.654Z,11.10
2023-03-19T17:43:18.247Z,11.10
2023-03-19T17:45:48.439Z,11.10
2023-03-19T17:48:21.305Z,11.10
2023-03-19T17:50:49.788Z,11.10
2023-03-19T17:53:18.424Z,11.10
2023-03-19T17:55:46.895Z,11.00
2023-03-19T17:58:18.239Z,11.00
2023-03-19T18:00:48.499Z,11.00
2023-03-19T18:03:18.741Z,11.00
2023-03-19T18:05:46.601Z,11.00
2023-03-19T18:08:16.874Z,10.90
2023-03-19T18:10:45.251Z,10.90
2023-03-19T18:13:12.974Z,10.80
2023-03-19T18:15:43.893Z,10.80
2023-03-19T18:18:17.743Z,10.80
2023-03-19T18:20:46.556Z,10.80
2023-03-19T18:23:16.398Z,10.80
2023-03-19T18:25:45.204Z,10.80
2023-03-19T18:28:13.410Z,10.70
2023-03-19T18:30:42.363Z,10.70
2023-03-19T18:33:17.606Z,10.70
2023-03-19T18:35:46.490Z,10.70
2023-03-19T18:38:17.347Z,10.70
2023-03-19T18:40:45.168Z,10.70
2023-03-19T18:43:15.598Z,10.70
2023-03-19T18:45:45.300Z,10.70
2023-03-19T18:48:22.019Z,10.60
2023-03-19T18:50:50.064Z,10.60
2023-03-19T18:53:18.440Z,10.60
2023-03-19T18:55:47.005Z,10.60
2023-03-19T18:58:20.374Z,10.60
2023-03-19T19:00:49.794Z,10.60
2023-03-19T19:03:21.784Z,10.50
2023-03-19T19:05:49.608Z,10.50
2023-03-19T19:08:18.942Z,10.50
2023-03-19T19:10:50.129Z,10.50
2023-03-19T19:13:21.222Z,10.50
2023-03-19T19:15:49.171Z,10.40
2023-03-19T19:18:21.163Z,10.40
2023-03-19T19:20:51.113Z,10.40
2023-03-19T19:23:19.788Z,10.30
2023-03-19T19:25:50.853Z,10.30
2023-03-19T19:28:22.447Z,10.20
2023-03-19T19:30:50.691Z,10.20
2023-03-19T19:33:22.345Z,10.20
2023-03-19T19:35:51.956Z,10.20
2023-03-19T19:38:19.803Z,10.20
2023-03-19T19:40:50.395Z,10.10
2023-03-19T19:43:20.653Z,10.10
2023-03-19T19:45:51.532Z,10.10
2023-03-19T19:48:22.538Z,10.10
2023-03-19T19:50:50.345Z,10.00
2023-03-19T19:53:18.840Z,10.00
2023-03-19T19:55:47.654Z,10.00
2023-03-19T19:58:20.039Z,9.90
2023-03-19T20:01:02.383Z,9.90
2023-03-19T20:03:33.665Z,9.90
2023-03-19T20:06:02.722Z,9.80
2023-03-19T20:08:30.437Z,9.80
2023-03-19T20:10:58.581Z,9.80
2023-03-19T20:13:29.037Z,9.80
2023-03-19T20:15:58.644Z,9.70
2023-03-19T20:18:30.767Z,9.70
2023-03-19T20:21:01.095Z,9.70
2023-03-19T20:23:29.132Z,9.60
2023-03-19T20:25:58.124Z,9.50
2023-03-19T20:28:30.404Z,9.50
2023-03-19T20:30:58.126Z,9.50
2023-03-19T20:33:25.930Z,9.40
2023-03-19T20:35:53.672Z,9.50
2023-03-19T20:38:22.895Z,9.50
2023-03-19T20:40:53.411Z,9.50
2023-03-19T20:43:28.208Z,9.50
2023-03-19T20:45:57.606Z,9.50
2023-03-19T20:48:27.197Z,9.50
2023-03-19T20:50:55.466Z,9.50
2023-03-19T20:53:25.064Z,9.50
2023-03-19T20:55:53.089Z,9.40
2023-03-19T20:58:24.591Z,9.50
2023-03-19T21:00:53.615Z,9.50
2023-03-19T21:03:23.435Z,9.50
2023-03-19T21:05:55.209Z,9.40
2023-03-19T21:08:32.278Z,9.40
2023-03-19T21:11:01.098Z,9.40
2023-03-19T21:13:29.275Z,9.40
2023-03-19T21:15:57.309Z,9.40
2023-03-19T21:18:25.340Z,9.40
2023-03-19T21:20:56.699Z,9.40
2023-03-19T21:23:29.851Z,9.40
2023-03-19T21:25:58.378Z,9.40
2023-03-19T21:28:29.780Z,9.30
2023-03-19T21:30:58.225Z,9.30
2023-03-19T21:33:27.922Z,9.30
2023-03-19T21:35:56.711Z,9.30
2023-03-19T21:38:26.935Z,9.30
2023-03-19T21:40:57.811Z,9.30
2023-03-19T21:43:33.837Z,9.30
2023-03-19T21:46:13.865Z,9.30
2023-03-19T21:48:50.317Z,9.30
2023-03-19T21:51:18.136Z,9.30
2023-03-19T21:53:47.538Z,9.30
2023-03-19T21:56:21.504Z,9.30
2023-03-19T21:58:51.162Z,9.30
2023-03-19T22:01:20.706Z,9.40
2023-03-19T22:03:48.761Z,9.40
2023-03-19T22:06:16.936Z,9.40
2023-03-19T22:08:47.906Z,9.40
2023-03-19T22:11:20.849Z,9.40
2023-03-19T22:13:49.030Z,9.40
2023-03-19T22:16:19.930Z,9.50
2023-03-19T22:18:48.341Z,9.50
2023-03-19T22:21:17.708Z,9.50
2023-03-19T22:23:46.111Z,9.50
2023-03-19T22:26:28.461Z,9.50
2023-03-19T22:28:57.075Z,9.50
2023-03-19T22:31:25.333Z,9.50
2023-03-19T22:33:53.230Z,9.50
2023-03-19T22:36:21.043Z,9.50
2023-03-19T22:38:49.273Z,9.50
2023-03-19T22:41:21.058Z,9.50
2023-03-19T22:43:50.336Z,9.50
2023-03-19T22:46:19.595Z,9.50
2023-03-19T22:48:50.869Z,9.50
2023-03-19T22:51:21.128Z,9.50
2023-03-19T22:53:49.117Z,9.50
2023-03-19T22:56:17.793Z,9.50
2023-03-19T22:58:46.642Z,9.50
2023-03-19T23:01:36.184Z,9.50
2023-03-19T23:04:17.861Z,9.50
2023-03-19T23:06:45.686Z,9.50
2023-03-19T23:09:16.539Z,9.50
2023-03-19T23:11:44.302Z,9.40
2023-03-19T23:14:22.304Z,9.40
2023-03-19T23:19:27.903Z,9.40
2023-03-19T23:21:55.971Z,9.30
2023-03-19T23:24:24.010Z,9.30
2023-03-19T23:26:53.123Z,9.30
2023-03-19T23:29:24.536Z,9.30
2023-03-19T23:31:52.373Z,9.30
2023-03-19T23:34:22.045Z,9.30
2023-03-19T23:36:49.745Z,9.30
2023-03-19T23:39:17.467Z,9.20
2023-03-19T23:41:49.122Z,9.20
2023-03-19T23:44:19.342Z,9.10
2023-03-19T23:46:49.517Z,9.10
2023-03-19T23:49:24.740Z,9.10
2023-03-19T23:51:53.802Z,9.10
2023-03-19T23:54:29.771Z,9.10
2023-03-19T23:56:59.575Z,9.00
2023-03-19T23:59:28.578Z,9.00
